Timeline UpdatesTrip UpdatesNews PostsPvt PostsTravel TipsAdmin PostsConv PostsFollowed PostsChat RequestsBlog PostsPNR Posts

Disclaimer
Search
 
 
Tue Sep 2, 2014 22:20:47 ISTHomeTrainsΣChainsAtlasPNRForumGalleryNewsFAQTripsMembersLoginFeedback
No Recent News for this Train
Other Trains in the News **new
Latest...
..
Fri Mar 08, 2013 (11:04AM)
⇐ Return Journey: Train# 12916

12915/Ashram SF Express

Time-Table HAS CHANGED.
Yesterday (11:38PM)
Change Departure Station:
Change Arrival Station:
Post a Train Travel TipPost a Train Travel Tip **new
Post a Comment/Question/Picture/VideoPost a Comment/Question/Picture/Video
Inaugural Run
Fri Aug 01, 1997
Pantry/Catering
✕ NO Pantry Car
✓ Catering Avbl
RSA - Rake Sharing
Rake/Coach Composition
Eng-SLR-GEN-GEN-S1-S2-S3-S4-S5-S6-S7-S8-S9-S10-S11-S12-S13-B3-B2-B1-A1-HA1-GEN-GEN-SLR; ( 1AC-.5, 2AC-1.5, 3AC-3, S-13, GEN-4, SLR-2= 24 coach)
Loco
BGKT WDP4/WDP4B/WDP4D
News    PNR    Forum    Time-Table    Availability    Fare Chart    Map    Arr/Dep History    Trips    Gallery    ΣChains    X/O    Timeline    
Travel Time: 15h 40m    17 halts    Distance: 938 km    Avg Speed: 59 km/hr
Type: SuperFast
Zone: WR/Western
Departs @ 18:30
Platform# 6
SMTWTFS
Ahmedabad Junction/ADI 
Arrives @ 10:10 +1 night
Platform# 3
SMTWTFS
Old Delhi Junction/DLI 

17 halts. 160 intermediate Stations between Ahmedabad Junction and Old Delhi Junction

Hide intermediate Stations  Show Old Time-Table

#CodeStation NameX/OArrivesAvgDepartsAvgHaltPFDay#KmSpeedElevZoneAddress
1ADI»Ahmedabad Junction (12)»  -18:30-610.02251mWRAhmedabad, Gujarat
1.1SBTASabarmati A Cabin  18:38-18:38-  13.0 2256mWRSabarmati A Cabin, Gujarat
1.2SBICSabarmati BridgeO  18:43-18:43-  14.7 2254mWRSabarmati Bridge, Gujarat
1.3SBTSabarmati Junction (3)  18:45-18:45-  15.4 2252mWRAhmedabad, Gujarat
2SBISabarmati Junction (3)XO  18:45-18:47-2m215.46855mWRAhmadabad, Gujarat
2.1SBISSabarmati SouthO  18:50-18:50-  18.7 6856mWRSabarmati South, Gujarat
2.2CLDBChandlodiya BX  18:54-18:54-  113.1 6855mWRAhmedabad, Gujarat
2.3KHDKhodiyar  19:00-19:00-  120.4 6865mWRGandhinagar, Gujarat
2.4SHRDSaij Sertha Road (2)  19:06-19:06-  127.0 6871mWRJhulasan, Gujarat
2.5KLLKalol (3)X  19:10-19:10-  131.2 6871mWRKalol, Gujarat
2.6CTRLChhatral  19:13-19:13-  134.7 6872mWRState Highway 133, Gujarat
2.7ENIsand  19:15-19:15-  136.5 6877mWRKhodiyar, Gujarat
2.8PNPansar  19:17-19:17-  138.7 6874mWRPalanpur, Gujarat
2.9JULJhulasan (3)  19:19-19:19-  141.0 6877mWRMehsana, Gujarat
2.10GUSBGhumasan Bg  19:21-19:21-  143.9 6881mWRChandarda, Gujarat
2.11GUSGhumasan  19:21-19:21-  143.9 6882mWRState Highway 41, Gujarat
2.12DNWDangarwa  19:24-19:24-  147.6 6883mWRJagudan, Gujarat
2.13KYSDKaiyal Sedhavi  19:28-19:28-  152.0 6885mWRState Highway 217, Gujarat
2.14KYSBKaiyal Sedhavi Bg  19:28-19:28-  152.0 6885mWRLanghanaj, Gujarat
2.15UMNAmbliyasanX  19:31-19:31-  155.4 6890mWRMehsana, Gujarat
2.16JDNMJagudan  19:38-19:38-  163.2 6890mWRKochva Road, Gujarat
2.17JDNJagudanX  19:38-19:38-  163.2 6890mWRKochva Road, Gujarat
2.18SXSShobhasanX  19:42-19:42-  167.5 6886mWRState Highway 41, Gujarat
3MSHMahesana Junction (6)  19:46 19:47-19:48 19:49-2m1173.06995mWRMehsana, Gujarat
3.1MSHMMahesana  19:49-19:49-  173.1 6994mWRMehsana, Gujarat
3.2BHUBhandu Motidau  19:59-19:59-  184.1 6997mWRMahesana, Gujarat
3.3UARUnawa Aithor  20:04-20:04-  190.2 69108mWRGujarat State Highway 41, Gujarat
4UJAUnjha  20:08-20:10-2m2194.945116mWRUnjha, Gujarat
4.1KMLIKamli  20:20-20:20-  1102.2 45126mWRChhapi, Gujarat
4.2SIDSiddhpur  20:28-20:28-  1108.6 45136mWRState Highway 41, Gujarat
4.3DRWDharewada  20:35-20:35-  1114.2 45145mWRUnjha, Gujarat
4.4CHPChhapiX  20:46-20:46-  1121.8 45169mWRBanaskantha, Gujarat
4.5UMUmardashi  20:56-20:56-  1129.6 45187mWRChitrasani, Gujarat
5PNUPalanpur Junction (5)X  21:07-21:09-2m11138.072216mWRPalanpur, Gujarat
5.1KRJDKarjodaX  21:14-21:14-  1144.1 72234mNWRChhapi, Gujarat
5.2CTTChitrasani  21:19-21:19-  1149.5 72225mNWRChitrasani, Gujarat
5.3JTYJethi  21:22-21:22-  1153.9 72212mNWRBANASKANTHA, Gujarat
5.4IQGIqbal Gadh  21:27-21:27-  1160.0 72209mNWRBanaskantha, Gujarat
5.5SZASarotra RoadX  21:34-21:34-  1167.5 72216mNWRSarotra, Gujarat
5.6SIMShri Amirgadh  21:38-21:38-  1172.9 72229mNWRAmirgadh, Gujarat
5.7MAAMaval  21:45-21:45-  1181.3 72245mNWRNational Highway 14, Rajasthan
6ABRAbu Road (3)X  21:55 21:53-22:05 22:03-10m11190.678264mNWRSirohi Dist, Rajasthan
6.1MXOMorthala  22:05-22:05-  1193.7 78267mNWRNH 14, Rajasthan
6.2KWIKivarli  22:10-22:10-  1199.6 78281mNWRShri Amirgadh, Rajasthan
6.3BMNBhimana  22:16-22:16-  1207.5 78313mNWRAbu Road, Rajasthan
6.4SRPJSwarupGanj  22:23-22:23-  1216.0 78334mNWRSirohi Road, Rajasthan
6.5BNSBanas  22:29-22:29-  1224.4 78347mNWRSirohi Road, Rajasthan
6.6SOHSirohi Road (2)  22:37-22:37-  1234.5 78369mNWRPindwara, Rajasthan
6.7KVJKeshavganjX  22:43-22:43-  1242.4 78393mNWRJawai Bandh, Rajasthan
6.8NANANana  22:50-22:50-  1251.5 78355mNWRNana, Rajasthan
6.9KTRKothar  22:55-22:55-  1257.6 78346mNWRPali, Rajasthan
6.10MOIMori BeraX  22:59-22:59-  1263.9 78323mNWRNana, Rajasthan
6.11JWBJawai BandhX  23:07-23:07-  1273.3 78292mNWRPali, Rajasthan
6.12BRLYBiroliya  23:13-23:13-  1281.5 78294mNWRBiroliya Rd, Rajasthan
7FAFalna (2)  23:28 23:19-23:30 23:21-2m--1289.574282mNWRFalna, Rajasthan
7.1KZQKhimelX  23:28-23:28-  1297.6 74277mNWRJawai Bandh, Rajasthan
7.2RANIRani  23:33-23:33-  1303.9 74280mNWRRania, Rajasthan
7.3BGPRBhagwanpuraX  23:39-23:39-  1312.0 74276mNWRSomesar, Rajasthan
7.4JALJawali  23:45-23:45-  1319.6 74270mNWRRania, Rajasthan
7.5SOSSomesar  23:52-23:52-  1328.0 74269mNWRSomesar, Rajasthan
7.6BWABhinwaliya  23:57-23:57-  1334.1 74268mNWRPindwara, Rajasthan
7.7BGGBanta RaghunathgarhX  00:02-00:02-  2340.0 74266mNWRSomesar, Rajasthan
7.8AUWAAuwa (2)  00:08-00:08-  2347.3 74265mNWRSomesar, Rajasthan
7.9MJMarwar Junction (4)  00:15-00:15-  2356.0 74267mNWRMarwar Junction, Rajasthan
7.10DRSDhareshwar  00:22-00:22-  2364.8 74275mNWRMarwar Jn, Rajasthan
7.11BFYBhesana  00:27-00:27-  2371.4 74285mNWRMarwar, Rajasthan
7.12SODSojat Road (2)X  00:32-00:32-  2376.9 74295mNWRSojat Road, Rajasthan
7.13BQNBagri Nagar  00:36-00:36-  2382.1 74295mNWRMarwar, Rajasthan
7.14BGXBagri Sajjanpur  00:40-00:40-  2386.3 74298mNWRHaripur, Rajasthan
7.15CNLChandawalX  00:44-00:44-  2392.1 74304mNWRPali, Rajasthan
7.16GRIGuriyaX  00:53-00:53-  2402.3 74323mNWRPali, Rajasthan
7.17HPHaripur  00:59-00:59-  2410.2 74345mNWRPali, Rajasthan
7.18BARBar  01:08-01:08-  2420.7 74383mNWRHaripur, Rajasthan
7.19SEUSendra  01:15-01:15-  2429.5 74427mNWRSabalpura, Rajasthan
7.20APAAmarpura  01:21-01:21-  2437.7 74468mNWRKharwa, Rajasthan
8BERBeawar (2)  01:15 01:26-01:17 01:28-2m--2443.460447mNWRBeawar, Rajasthan
8.1BNGMBangurgram Halt  01:33-01:33-  2448.3 60434mNWRBeawar, Rajasthan
8.2PPFPiplaj  01:37-01:37-  2452.8 60449mNWRBeawar, Rajasthan
8.3KRWKharwa  01:44-01:44-  2459.1 60439mNWRAjmer, Rajasthan
8.4LNALamana  01:50-01:50-  2465.1 60441mNWRBeawar, Rajasthan
8.5MLIMangaliyawas  01:54-01:54-  2469.9 60430mNWRMangliyawas Railway Station, Rajasthan
8.6MKRAMakrera  02:00-02:00-  2475.1 60446mNWRKharwa, Rajasthan
8.7SDHSaradhna  02:04-02:04-  2479.9 60461mNWRMangaliyawas, Rajasthan
8.8DOZDaurai  02:13-02:13-  2488.1 60458mNWRMadar, Rajasthan
9AIIAjmer Junction (5)X  02:20-02:30-10m12495.667464mNWRPin: 305001, Rajasthan
9.1MDMadar Junction (6)  02:36-02:36-  2502.5 67490mNWRAjmer, Rajasthan
9.2LRLadpura (2)  02:42-02:42-  2509.2 67468mNWRAjmer, Rajasthan
9.3GEKGegal AkhriX  02:47-02:47-  2514.9 67459mNWRKishangarh, Rajasthan
9.4KSGKishangarh (3)  02:56-02:56-  2524.3 67443mNWRKishangarh, Rajasthan
9.5MNDVMandawariya  03:01-03:01-  2530.1 67445mNWRHarmara Rd, Rajasthan
9.6TLTiloniya  03:05-03:05-  2535.1 67428mNWRTiloniya, Rajasthan
9.7GLTAGahlota  03:09-03:09-  2539.3 67417mNWRKishangarh, Rajasthan
9.8SALISali  03:15-03:15-  2546.4 67395mNWRAjmer, Rajasthan
9.9SKSakhun  03:21-03:21-  2553.2 67392mNWRAjmer, Rajasthan
9.10DTRADantraX  03:27-03:27-  2560.0 67366mNWRMDR 85, Rajasthan
9.11NRINaraina  03:32-03:32-  2565.3 67377mNWRAjmer, Rajasthan
9.12BNWSBhanwsa  03:36-03:36-  2569.4 67382mNWRState Highway 2, Rajasthan
9.13FLPhulera Junction (5)X  03:41-03:41-  2575.2 67386mNWRPhulera, Rajasthan
9.14HDAHirnoda  03:49-03:49-  2583.9 67400mNWRJaipur, Rajasthan
9.15DHNDDhindaX  03:52-03:52-  2587.9 67386mNWRMDR 59, Rajasthan
9.16JOBAsalpur Jobner  03:57-03:57-  2593.5 67379mNWRJaipur, Rajasthan
9.17BOBSBobas  04:04-04:04-  2601.0 67396mNWRJaipur, Rajasthan
9.18SHNXSheo Singh Pura  04:10-04:10-  2607.9 67411mNWRJaipur, Rajasthan
9.19DNKDhanakya  04:13-04:13-  2611.7 67418mNWRJaipur, Rajasthan
9.20BDYKBindayaka  04:18-04:18-  2616.2 67411mNWRJaipur, Rajasthan
9.21KKUKanakpuraX  04:22-04:22-  2621.4 67429mNWRJaipur, Rajasthan
10JPJaipur Junction (7)  04:30-04:40-10m12630.282434mNWRJaipur, Rajasthan
10.1GADJJaipur Gandhinagar (2)  04:44-04:44-  2635.7 82426mNWRJaipur, Rajasthan
10.2GTJTGetor Jagatpura (2)  04:48-04:48-  2641.2 82389mNWRJaipur, Rajasthan
10.3KWPKhatipura (2)  04:52-04:52-  2647.1 82364mNWRGandhinagar, Rajasthan
10.4KUTKanauta (2)  04:57-04:57-  2653.6 82350mNWRJaipur, Rajasthan
10.5BAIBassi (3)  05:04-05:04-  2662.8 82352mNWRJaipur, Rajasthan
10.6JHIRJhir (2)  05:09-05:09-  2669.7 82377mNWRKanauta, Rajasthan
10.7BSKOBanskho (2)  05:11-05:11-  2672.3 82362mNWRJaipur, Rajasthan
10.8JWJatwara (2)  05:16-05:16-  2679.7 82329mNWRDausa, Rajasthan
10.9BNDNBhandana (2)  05:20-05:20-  2684.5 82329mNWRBanskho, Rajasthan
11DODausa (2)X  05:25-05:27-2m22691.775333mNWRDausa, Rajasthan
11.1BAKBhan Kari (2)  05:36-05:36-  2702.5 75301mNWRDausa, Rajasthan
11.2KVGMKolvagram (2)  05:41-05:41-  2709.1 75294mNWRBandikui, Rajasthan
11.3ARNAArnia (2)X  05:45-05:45-  2714.5 75288mNWRBandikui, Rajasthan
12BKIBandikui Junction (6)  05:50-05:52-2m12720.592283mNWRBandikui, Rajasthan
12.1GLNAGulana (1)X  05:57-05:57-  2727.5 92279mNWRState Highway 25, Rajasthan
12.2BUBaswa (2)  06:00-06:00-  2733.1 92291mNWRAlwar, Rajasthan
12.3SRRGSurergoth (1)  06:04-06:04-  2739.3 92308mNWRState Highway 25, Rajasthan
13RHGRajgarh (2)  06:08-06:10-2m--2745.072303mNWRRajgarh, Rajasthan
13.1DGWDhigawara (1)  06:16-06:16-  2751.9 72278mNWRBaswa, Rajasthan
13.2MKHMalakhera (1)  06:24-06:24-  2762.0 72265mNWRMala Khera, Rajasthan
13.3MWWMahwa (1)  06:33-06:33-  2772.6 72264mNWRAlwar, Rajasthan
14AWRAlwar Junction (2)  06:40-06:43-3m--2781.265267mNWRAlwar, Rajasthan
14.1PSLParisalX  06:55-06:55-  2794.8 65289mNWRKhairthal, Rajasthan
14.2GALGhatla  07:01-07:01-  2801.2 65308mNWRState Highway 14, Rajasthan
15KRHKhairthal (2)  07:08-07:10-2m12808.439305mNWRKhairthal, Rajasthan
15.1HSIHarsauliX  07:22-07:22-  2816.1 39287mNWRHarsoli, Rajasthan
15.2KNARKhanpur AhirX  07:30-07:30-  2821.6 39284mNWRMDR 61, Rajasthan
15.3AIAAjaraka  07:40-07:40-  2827.8 39280mNWRAjaraka, Rajasthan
15.4MJNLMajri NangalX  07:50-07:50-  2834.3 39273mNWRState Highway 52, Rajasthan
15.5BWLBawal  08:00-08:00-  2840.7 39266mNWRBawal, Haryana
15.6KNGTKarnawas  08:10-08:10-  2847.6 39257mNWRKarnawas, Haryana
15.7AMRIAnaj Mandi (2)  08:20-08:20-  2854.2 39248mNWRRampura, Haryana
16RERewari Junction (8)XO  08:23-08:25-2m62855.975245mNWRRewari, Haryana
16.1KWMDKumbhawas Mundhalia Dabri (1)X  08:30-08:30-  2862.6 75237mNRKumbhawas, Haryana
16.2KIPKhalilpur  08:33-08:33-  2866.4 75235mNRState Highway 26, Haryana
16.3IHPInchhapuri (1)  08:38-08:38-  2872.8 75231mNRGurgaon, Haryana
16.4PTRDPataudi Road  08:42-08:44 08:42-  2877.6 75227mNRHailley Mandi, Haryana
16.5JSKAJataula Samphka  08:47-08:47-  2882.9 75226mNRHailley Mandi, Haryana
16.6TNJRTaj Nagar (2)X  08:49-08:49-  2886.2 75231mNRGurgaon, Haryana
16.7PTPatli (3)  08:52-08:52-  2889.2 75226mNRGurgaon, Haryana
16.8GHHGarhi Harsaru (3)  08:58-08:58-  2897.4 75220mNRGurgaon, Haryana
16.9BDXTBasai Dhankot (1)X  09:03-09:03-  2903.3 75213mNRGurgaon, Haryana
17GGNGurgaon (3)  09:06-09:08-2m22907.264217mNRGurgaon, Haryana
17.1PLVRPalam Vihar HaltX  09:12-09:12-  2911.0 64218mNRGurgaon, Haryana
17.2BWSNBijwasan (3)  09:14-09:14-  2913.8 64222mNRBijwasan, Delhi NCT
17.3SMDPShahabad Mohammadpur (2)X  09:17-09:17-  2917.1 64218mNRDwarka, Delhi NCT
17.4PMPalam (3)  09:20-09:20-  2920.6 64222mNRNew Delhi - 110010, Delhi NCT
17.5NSNNasirpur Halt (1)  09:23-09:23-  2923.0 64220mNRnasirpur, Uttar Pradesh
18DECDelhi Cantt. (5)X  09:31 09:24-09:33 09:26-2m32924.419217mNRDelhi, Delhi NCT
18.1KRTNKirtinagar (2)O  09:44-09:44-  2930.1 19220mNRKirti Nagar, Delhi NCT
18.2PTNRPatel Nagar (7)X  09:46-09:46-  2930.9 19222mNRPatel Nagar, Delhi NCT
18.3DBSIDayabasti (2)  09:52-09:52-  2932.8 19225mNRZakhira, Delhi NCT
18.4DEEDelhi Sarai Rohilla (5)  09:56-09:56-  2934.1 19226mNRNew Rohtak road, Delhi NCT
18.5DKZDelhi KishanGanj (2)  10:01-10:01-  2935.6 19220mNRSarai Rohilla, Delhi NCT
19DLI•Old Delhi Junction (16)•  10:10--32938.5-219mNRNear Chandni Chowk Metro Station, Delhi NCT
Scroll to Top
Scroll to Bottom